createdAt,value
2019-02-19T00:00:01.590Z,8.37
2019-02-19T00:02:50.582Z,11.53
2019-02-19T00:05:39.945Z,9.93
2019-02-19T00:08:10.755Z,7.83
2019-02-19T00:10:41.715Z,11.27
2019-02-19T00:13:31.006Z,9.77
2019-02-19T00:16:01.893Z,7.10
2019-02-19T00:18:32.708Z,9.27
2019-02-19T00:21:05.455Z,10.83
2019-02-19T00:23:48.553Z,9.13
2019-02-19T00:26:21.372Z,12.67
2019-02-19T00:28:54.097Z,9.80
2019-02-19T00:31:26.888Z,10.63
2019-02-19T00:33:59.652Z,11.27
2019-02-19T00:36:43.073Z,11.03
2019-02-19T00:39:15.828Z,11.07
2019-02-19T00:41:48.594Z,12.03
2019-02-19T00:44:21.321Z,10.13
2019-02-19T00:46:54.057Z,8.73
2019-02-19T00:49:36.466Z,9.83
2019-02-19T00:52:09.274Z,11.13
2019-02-19T00:54:42.031Z,15.57
2019-02-19T00:57:14.753Z,11.13
2019-02-19T00:59:47.464Z,8.23
2019-02-19T01:02:30.433Z,8.70
2019-02-19T01:05:03.230Z,9.87
2019-02-19T01:07:35.937Z,9.03
2019-02-19T01:10:06.897Z,8.57
2019-02-19T01:12:37.719Z,8.77
2019-02-19T01:15:09.567Z,9.93
2019-02-19T01:17:40.344Z,9.13
2019-02-19T01:20:11.030Z,13.40
2019-02-19T01:22:50.271Z,10.00
2019-02-19T01:25:20.994Z,9.90
2019-02-19T01:27:51.750Z,9.47
2019-02-19T01:30:22.417Z,9.57
2019-02-19T01:32:53.124Z,10.00
2019-02-19T01:35:23.839Z,8.73
2019-02-19T01:37:54.557Z,8.60
2019-02-19T01:40:25.271Z,9.93
2019-02-19T01:42:56.028Z,10.17
2019-02-19T01:45:33.860Z,13.50
2019-02-19T01:47:59.171Z,12.90
2019-02-19T01:50:29.867Z,9.77
2019-02-19T01:53:00.843Z,10.27
2019-02-19T01:55:31.628Z,11.17
2019-02-19T01:58:02.366Z,9.20
2019-02-19T02:00:33.503Z,8.20
2019-02-19T02:03:04.750Z,8.97
2019-02-19T02:05:35.506Z,10.27
2019-02-19T02:08:06.562Z,8.03
2019-02-19T02:10:37.318Z,9.90
2019-02-19T02:13:07.995Z,7.87
2019-02-19T02:15:42.766Z,8.80
2019-02-19T02:18:11.078Z,7.83
2019-02-19T02:20:41.794Z,9.97
2019-02-19T02:23:12.510Z,9.23
2019-02-19T02:25:43.277Z,8.30
2019-02-19T02:28:13.993Z,12.07
2019-02-19T02:30:44.738Z,6.10
2019-02-19T02:33:15.446Z,10.70
2019-02-19T02:35:46.252Z,8.10
2019-02-19T02:38:16.981Z,10.87
2019-02-19T02:40:47.725Z,7.20
2019-02-19T02:43:18.453Z,6.87
2019-02-19T02:45:53.398Z,8.80
2019-02-19T02:48:21.535Z,10.90
2019-02-19T02:50:52.261Z,8.87
2019-02-19T02:53:23.008Z,7.23
2019-02-19T02:55:53.733Z,9.40
2019-02-19T02:58:24.439Z,8.33
2019-02-19T03:00:55.175Z,11.23
2019-02-19T03:03:25.887Z,9.13
2019-02-19T03:06:25.005Z,9.17
2019-02-19T03:08:55.695Z,10.33
2019-02-19T03:11:26.430Z,8.67
2019-02-19T03:13:57.174Z,10.17
2019-02-19T03:16:27.910Z,9.17
2019-02-19T03:18:58.636Z,10.50
2019-02-19T03:21:29.423Z,8.57
2019-02-19T03:24:00.121Z,8.77
2019-02-19T03:26:30.865Z,10.23
2019-02-19T03:29:01.593Z,12.73
2019-02-19T03:31:32.319Z,8.63
2019-02-19T03:34:03.035Z,6.93
2019-02-19T03:36:33.741Z,8.67
2019-02-19T03:39:05.278Z,7.27
2019-02-19T03:41:36.023Z,9.03
2019-02-19T03:44:06.739Z,9.80
2019-02-19T03:46:37.529Z,8.50
2019-02-19T03:49:08.225Z,7.83
2019-02-19T03:51:38.961Z,7.57
2019-02-19T03:54:09.685Z,9.67
2019-02-19T03:56:40.444Z,6.93
2019-02-19T03:59:11.127Z,7.43
2019-02-19T04:01:41.815Z,7.80
2019-02-19T04:04:12.571Z,8.60
2019-02-19T04:06:43.296Z,8.87
2019-02-19T04:09:14.063Z,6.50
2019-02-19T04:11:44.758Z,6.70
2019-02-19T04:14:15.543Z,9.50
2019-02-19T04:16:46.241Z,8.57
2019-02-19T04:19:16.917Z,9.43
2019-02-19T04:21:47.627Z,7.17
2019-02-19T04:24:18.389Z,8.50
2019-02-19T04:26:49.088Z,7.27
2019-02-19T04:29:19.823Z,7.97
2019-02-19T04:31:50.528Z,11.40
2019-02-19T04:34:21.265Z,7.63
2019-02-19T04:36:51.992Z,6.87
2019-02-19T04:39:22.758Z,7.10
2019-02-19T04:41:53.494Z,10.93
2019-02-19T04:44:24.230Z,7.30
2019-02-19T04:46:54.948Z,11.30
2019-02-19T04:49:25.733Z,10.20
2019-02-19T04:51:56.469Z,11.37
2019-02-19T04:54:27.246Z,10.10
2019-02-19T04:56:58.363Z,11.63
2019-02-19T04:59:29.159Z,9.97
2019-02-19T05:01:59.836Z,9.80
2019-02-19T05:04:30.616Z,10.80
2019-02-19T05:07:01.336Z,12.53
2019-02-19T05:09:32.091Z,12.50
2019-02-19T05:12:02.849Z,10.87
2019-02-19T05:14:33.586Z,11.67
2019-02-19T05:17:04.353Z,10.40
2019-02-19T05:19:35.080Z,8.97
2019-02-19T05:22:05.805Z,10.43
2019-02-19T05:24:36.522Z,8.80
2019-02-19T05:27:07.287Z,9.47
2019-02-19T05:29:37.944Z,9.57
2019-02-19T05:32:08.711Z,8.43
2019-02-19T05:34:39.442Z,11.40
2019-02-19T05:37:10.183Z,11.87
2019-02-19T05:39:40.941Z,10.97
2019-02-19T05:42:11.704Z,9.03
2019-02-19T05:44:42.382Z,11.87
2019-02-19T05:47:13.133Z,11.30
2019-02-19T05:49:43.893Z,11.03
2019-02-19T05:52:14.641Z,12.80
2019-02-19T05:54:45.392Z,11.63
2019-02-19T05:57:16.163Z,12.17
2019-02-19T05:59:46.891Z,13.47
2019-02-19T06:02:17.690Z,12.37
2019-02-19T06:04:48.419Z,12.47
2019-02-19T06:07:19.218Z,11.87
2019-02-19T06:09:49.935Z,14.30
2019-02-19T06:12:20.651Z,11.43
2019-02-19T06:14:51.464Z,17.57
2019-02-19T06:17:22.204Z,11.63
2019-02-19T06:19:52.920Z,14.37
2019-02-19T06:22:23.685Z,14.03
2019-02-19T06:24:54.402Z,11.50
2019-02-19T06:27:25.129Z,14.23
2019-02-19T06:29:55.885Z,11.30
2019-02-19T06:32:26.645Z,14.10
2019-02-19T06:34:57.387Z,16.87
2019-02-19T06:37:28.094Z,12.27
2019-02-19T06:39:58.824Z,15.23
2019-02-19T06:42:29.757Z,18.17
2019-02-19T06:45:00.503Z,17.07
2019-02-19T06:47:31.279Z,13.70
2019-02-19T06:50:02.025Z,17.37
2019-02-19T06:52:32.742Z,15.47
2019-02-19T06:55:03.511Z,15.03
2019-02-19T06:57:34.234Z,15.50
2019-02-19T07:00:05.211Z,15.47
2019-02-19T07:02:50.650Z,16.10
2019-02-19T07:05:23.137Z,19.20
2019-02-19T07:07:53.903Z,15.83
2019-02-19T07:10:24.669Z,15.93
2019-02-19T07:12:55.416Z,20.80
2019-02-19T07:15:26.183Z,18.90
2019-02-19T07:17:56.889Z,17.27
2019-02-19T07:20:27.624Z,19.00
2019-02-19T07:22:58.380Z,18.80
2019-02-19T07:25:29.138Z,17.67
2019-02-19T07:27:59.846Z,16.77
2019-02-19T07:30:30.599Z,21.40
2019-02-19T07:33:01.299Z,20.90
2019-02-19T07:35:32.613Z,17.33
2019-02-19T07:38:03.329Z,17.27
2019-02-19T07:40:34.128Z,20.37
2019-02-19T07:43:04.843Z,16.57
2019-02-19T07:45:35.596Z,18.60
2019-02-19T07:48:06.354Z,20.97
2019-02-19T07:50:37.061Z,19.70
2019-02-19T07:53:07.777Z,25.07
2019-02-19T07:55:38.574Z,21.00
2019-02-19T07:58:09.299Z,21.90
2019-02-19T08:00:40.068Z,26.50
2019-02-19T08:03:10.792Z,29.13
2019-02-19T08:05:41.559Z,32.40
2019-02-19T08:08:12.315Z,33.53
2019-02-19T08:10:43.041Z,29.47
2019-02-19T08:13:13.777Z,28.50
2019-02-19T08:15:44.492Z,24.60
2019-02-19T08:18:15.270Z,26.50
2019-02-19T08:20:45.946Z,36.43
2019-02-19T08:23:16.713Z,34.63
2019-02-19T08:25:47.416Z,30.10
2019-02-19T08:28:18.176Z,24.27
2019-02-19T08:30:48.953Z,22.70
2019-02-19T08:33:19.699Z,25.17
2019-02-19T08:35:50.396Z,22.83
2019-02-19T08:38:21.140Z,24.40
2019-02-19T08:40:51.876Z,22.90
2019-02-19T08:43:22.593Z,28.10
2019-02-19T08:45:53.367Z,24.33
2019-02-19T08:48:24.088Z,24.37
2019-02-19T08:50:54.772Z,26.27
2019-02-19T08:53:26.858Z,22.67
2019-02-19T08:55:57.605Z,24.20
2019-02-19T08:58:28.357Z,21.47
2019-02-19T09:00:59.109Z,24.23
2019-02-19T09:03:29.843Z,25.17
2019-02-19T09:06:00.589Z,26.03
2019-02-19T09:08:31.336Z,27.17
2019-02-19T09:11:02.042Z,26.10
2019-02-19T09:13:32.824Z,23.73
2019-02-19T09:16:03.535Z,27.57
2019-02-19T09:18:34.281Z,27.23
2019-02-19T09:21:05.029Z,26.17
2019-02-19T09:23:36.139Z,23.30
2019-02-19T09:26:07.050Z,23.37
2019-02-19T09:28:37.776Z,17.97
2019-02-19T09:31:08.541Z,25.50
2019-02-19T09:33:39.279Z,16.83
2019-02-19T09:36:10.040Z,19.53
2019-02-19T09:38:40.795Z,21.10
2019-02-19T09:41:11.547Z,20.53
2019-02-19T09:43:42.313Z,18.00
2019-02-19T09:46:13.122Z,12.67
2019-02-19T09:48:43.846Z,17.87
2019-02-19T09:51:14.635Z,12.30
2019-02-19T09:53:45.348Z,13.47
2019-02-19T09:56:16.075Z,15.77
2019-02-19T09:58:46.811Z,16.83
2019-02-19T10:02:45.940Z,18.40
2019-02-19T10:05:16.795Z,17.23
2019-02-19T10:07:47.524Z,14.60
2019-02-19T10:10:18.497Z,18.37
2019-02-19T10:12:49.234Z,17.53
2019-02-19T10:15:19.960Z,17.43
2019-02-19T10:17:50.876Z,15.37
2019-02-19T10:20:21.860Z,17.27
2019-02-19T10:22:52.699Z,16.40
2019-02-19T10:25:23.556Z,18.93
2019-02-19T10:27:54.451Z,16.07
2019-02-19T10:30:25.453Z,14.73
2019-02-19T10:32:56.354Z,15.90
2019-02-19T10:35:27.260Z,14.80
2019-02-19T10:37:58.117Z,18.17
2019-02-19T10:40:29.194Z,19.33
2019-02-19T10:43:48.920Z,16.93
2019-02-19T10:46:20.543Z,21.20
2019-02-19T10:48:52.023Z,21.00
2019-02-19T10:51:23.531Z,19.33
2019-02-19T10:53:54.997Z,17.03
2019-02-19T10:56:26.554Z,17.67
2019-02-19T10:58:58.040Z,22.73
2019-02-19T11:01:29.539Z,17.50
2019-02-19T11:04:01.033Z,15.17
2019-02-19T11:06:32.579Z,14.73
2019-02-19T11:09:04.655Z,15.97
2019-02-19T11:11:36.213Z,20.10
2019-02-19T11:14:07.709Z,17.03
2019-02-19T11:16:39.255Z,22.50
2019-02-19T11:19:10.743Z,19.10
2019-02-19T11:21:42.258Z,15.43
2019-02-19T11:24:13.745Z,15.93
2019-02-19T11:26:45.161Z,14.17
2019-02-19T11:29:16.668Z,15.87
2019-02-19T11:32:14.103Z,13.87
2019-02-19T11:34:45.115Z,15.30
2019-02-19T11:37:16.032Z,16.10
2019-02-19T11:39:46.918Z,25.20
2019-02-19T11:42:17.825Z,23.63
2019-02-19T11:44:48.712Z,17.67
2019-02-19T11:47:26.433Z,14.60
2019-02-19T11:51:09.457Z,17.37
2019-02-19T11:53:41.022Z,24.07
2019-02-19T11:56:29.691Z,15.73
2019-02-19T11:59:01.197Z,14.50
2019-02-19T12:01:32.623Z,15.87
2019-02-19T12:04:04.119Z,12.07
2019-02-19T12:06:35.626Z,11.43
2019-02-19T12:09:07.426Z,14.20
2019-02-19T12:11:38.900Z,12.03
2019-02-19T12:14:10.466Z,11.30
2019-02-19T12:16:41.943Z,12.50
2019-02-19T12:19:13.478Z,9.60
2019-02-19T12:21:44.946Z,12.50
2019-02-19T12:24:16.492Z,10.63
2019-02-19T12:26:47.968Z,9.57
2019-02-19T12:29:19.485Z,14.70
2019-02-19T12:31:50.991Z,15.97
2019-02-19T12:34:22.514Z,8.70
2019-02-19T12:36:54.035Z,9.93
2019-02-19T12:39:25.491Z,7.97
2019-02-19T12:41:56.998Z,10.40
2019-02-19T12:44:28.524Z,12.03
2019-02-19T12:47:00.071Z,12.67
2019-02-19T12:49:31.597Z,12.93
2019-02-19T12:52:03.111Z,9.90
2019-02-19T12:54:34.600Z,10.43
2019-02-19T12:57:06.156Z,12.67
2019-02-19T12:59:56.515Z,9.20
2019-02-19T13:02:44.989Z,9.53
2019-02-19T13:05:33.919Z,11.80
2019-02-19T13:08:22.319Z,9.40
2019-02-19T13:11:11.371Z,12.80
2019-02-19T13:13:59.811Z,7.63
2019-02-19T13:16:48.492Z,9.57
2019-02-19T13:19:37.642Z,11.83
2019-02-19T13:22:27.005Z,7.93
2019-02-19T13:25:16.338Z,7.63
2019-02-19T13:28:05.775Z,6.43
2019-02-19T13:30:54.379Z,8.07
2019-02-19T13:33:43.548Z,9.23
2019-02-19T13:36:32.607Z,15.73
2019-02-19T13:39:21.660Z,6.10
2019-02-19T13:42:10.840Z,7.33
2019-02-19T13:44:59.903Z,8.80
2019-02-19T13:47:49.300Z,11.07
2019-02-19T13:50:38.221Z,7.43
2019-02-19T13:53:37.058Z,11.10
2019-02-19T13:56:27.657Z,13.47
2019-02-19T13:59:16.392Z,24.57
2019-02-19T14:02:05.657Z,30.37
2019-02-19T14:04:54.498Z,11.67
2019-02-19T14:07:43.839Z,16.87
2019-02-19T14:10:32.493Z,17.10
2019-02-19T14:13:21.740Z,11.00
2019-02-19T14:16:32.986Z,12.90
2019-02-19T14:19:39.061Z,10.97
2019-02-19T14:22:46.030Z,9.20
2019-02-19T14:25:51.310Z,16.77
2019-02-19T14:29:00.107Z,12.10
2019-02-19T14:31:47.917Z,11.60
2019-02-19T14:34:37.651Z,8.63
2019-02-19T14:37:18.797Z,13.37
2019-02-19T14:40:45.880Z,9.60
2019-02-19T14:44:11.879Z,7.93
2019-02-19T14:47:14.410Z,10.50
2019-02-19T14:50:13.693Z,9.40
2019-02-19T14:53:30.794Z,9.23
2019-02-19T14:56:37.328Z,10.93
2019-02-19T14:59:45.206Z,10.13
2019-02-19T15:02:51.496Z,15.40
2019-02-19T15:05:58.651Z,9.50
2019-02-19T15:09:09.781Z,8.93
2019-02-19T15:12:08.032Z,8.87
2019-02-19T15:14:50.913Z,7.50
2019-02-19T15:17:35.980Z,10.33
2019-02-19T15:20:28.141Z,11.27
2019-02-19T15:23:15.056Z,10.33
2019-02-19T15:26:02.602Z,9.97
2019-02-19T15:28:51.382Z,13.87
2019-02-19T15:31:46.380Z,15.57
2019-02-19T15:34:31.055Z,10.27
2019-02-19T15:37:35.340Z,11.70
2019-02-19T15:40:23.053Z,8.80
2019-02-19T15:43:24.393Z,8.07
2019-02-19T15:46:12.130Z,8.63
2019-02-19T15:49:00.004Z,7.73
2019-02-19T15:51:47.565Z,8.17
2019-02-19T15:54:42.279Z,11.60
2019-02-19T15:57:35.968Z,15.60
2019-02-19T16:00:34.722Z,8.07
2019-02-19T16:03:31.056Z,8.00
2019-02-19T16:06:22.739Z,11.03
2019-02-19T16:09:06.695Z,9.97
2019-02-19T16:11:45.886Z,9.10
2019-02-19T16:14:53.212Z,9.03
2019-02-19T16:17:54.043Z,7.80
2019-02-19T16:20:32.832Z,5.90
2019-02-19T16:23:28.056Z,6.43
2019-02-19T16:26:28.616Z,8.87
2019-02-19T16:29:09.556Z,11.73
2019-02-19T16:31:53.796Z,8.90
2019-02-19T16:34:48.758Z,7.37
2019-02-19T16:37:25.678Z,9.33
2019-02-19T16:40:06.985Z,8.20
2019-02-19T16:42:52.780Z,10.33
2019-02-19T16:45:41.745Z,8.70
2019-02-19T16:48:24.545Z,9.50
2019-02-19T16:51:19.517Z,8.77
2019-02-19T16:54:07.263Z,9.87
2019-02-19T16:57:02.393Z,10.17
2019-02-19T17:00:48.194Z,10.27
2019-02-19T17:03:34.473Z,8.80
2019-02-19T17:06:24.382Z,9.43
2019-02-19T17:09:00.491Z,8.77
2019-02-19T17:11:41.907Z,8.80
2019-02-19T17:14:46.970Z,8.70
2019-02-19T17:18:57.996Z,44.17
2019-02-19T17:21:51.102Z,33.47
2019-02-19T17:24:44.728Z,42.57
2019-02-19T17:27:37.511Z,30.17
2019-02-19T17:30:27.844Z,34.30
2019-02-19T17:33:30.002Z,15.77
2019-02-19T17:36:19.846Z,11.83
2019-02-19T17:39:00.224Z,13.27
2019-02-19T17:41:44.906Z,11.53
2019-02-19T17:44:40.569Z,9.47
2019-02-19T17:51:05.212Z,22.73
2019-02-19T17:53:55.173Z,30.00
2019-02-19T17:56:48.488Z,36.40
2019-02-19T18:00:47.281Z,34.37
2019-02-19T18:03:36.815Z,21.23
2019-02-19T18:06:24.974Z,19.00
2019-02-19T18:10:08.578Z,23.60
2019-02-19T18:13:00.043Z,17.53
2019-02-19T18:15:43.561Z,17.73
2019-02-19T18:20:15.403Z,13.60
2019-02-19T18:22:47.969Z,15.13
2019-02-19T18:26:50.153Z,11.80
2019-02-19T18:29:21.134Z,12.47
2019-02-19T18:31:52.050Z,17.83
2019-02-19T18:34:22.956Z,17.73
2019-02-19T18:38:22.794Z,19.33
2019-02-19T18:41:11.979Z,18.47
2019-02-19T18:43:42.932Z,17.57
2019-02-19T18:46:13.827Z,35.53
2019-02-19T18:50:27.416Z,36.17
2019-02-19T18:52:57.530Z,100.80
2019-02-19T18:55:27.541Z,29.30
2019-02-19T18:57:57.578Z,20.77
2019-02-19T19:00:27.634Z,61.67
2019-02-19T19:02:57.672Z,30.90
2019-02-19T19:05:27.730Z,59.63
2019-02-19T19:07:58.224Z,46.13
2019-02-19T19:10:28.273Z,36.00
2019-02-19T19:12:58.257Z,44.17
2019-02-19T19:15:28.240Z,32.90
2019-02-19T19:17:58.276Z,32.40
2019-02-19T19:20:28.314Z,29.13
2019-02-19T19:22:58.295Z,22.57
2019-02-19T19:25:28.355Z,21.47
2019-02-19T19:27:58.351Z,25.40
2019-02-19T19:30:28.447Z,22.67
2019-02-19T19:32:58.442Z,24.07
2019-02-19T19:35:28.411Z,18.03
2019-02-19T19:37:58.424Z,19.33
2019-02-19T19:40:28.380Z,18.00
2019-02-19T19:42:58.377Z,20.13
2019-02-19T19:45:28.393Z,20.80
2019-02-19T19:47:58.423Z,18.03
2019-02-19T19:50:28.454Z,21.17
2019-02-19T19:52:58.442Z,22.03
2019-02-19T19:55:28.427Z,14.93
2019-02-19T19:57:58.478Z,17.63
2019-02-19T20:00:28.429Z,16.43
2019-02-19T20:02:58.237Z,16.37
2019-02-19T20:06:22.324Z,19.03
2019-02-19T20:08:53.315Z,24.43
2019-02-19T20:11:24.247Z,51.20
2019-02-19T20:13:55.214Z,46.80
2019-02-19T20:16:26.090Z,31.33
2019-02-19T20:18:57.979Z,31.00
2019-02-19T20:23:31.917Z,16.37
2019-02-19T20:26:02.883Z,17.93
2019-02-19T20:28:32.954Z,15.37
2019-02-19T20:31:03.641Z,17.13
2019-02-19T20:33:34.360Z,15.20
2019-02-19T20:36:05.083Z,16.80
2019-02-19T20:38:35.859Z,20.83
2019-02-19T20:41:06.607Z,16.63
2019-02-19T20:43:37.383Z,17.80
2019-02-19T20:46:08.119Z,13.23
2019-02-19T20:48:38.917Z,18.57
2019-02-19T20:51:09.624Z,17.13
2019-02-19T20:53:40.357Z,16.93
2019-02-19T20:56:11.123Z,20.53
2019-02-19T20:58:41.929Z,23.20
2019-02-19T21:01:12.655Z,20.40
2019-02-19T21:03:44.175Z,16.47
2019-02-19T21:06:15.010Z,14.07
2019-02-19T21:08:45.684Z,17.03
2019-02-19T21:11:16.442Z,14.00
2019-02-19T21:13:47.197Z,12.33
2019-02-19T21:16:17.973Z,16.27
2019-02-19T21:18:48.699Z,15.53
2019-02-19T21:21:19.414Z,18.03
2019-02-19T21:23:50.126Z,18.63
2019-02-19T21:26:20.831Z,20.13
2019-02-19T21:28:51.504Z,13.20
2019-02-19T21:31:22.137Z,16.83
2019-02-19T21:33:52.859Z,21.20
2019-02-19T21:36:23.513Z,15.07
2019-02-19T21:38:54.133Z,14.17
2019-02-19T21:41:24.835Z,13.40
2019-02-19T21:43:55.513Z,16.10
2019-02-19T21:46:26.173Z,13.33
2019-02-19T21:48:56.926Z,21.10
2019-02-19T21:51:27.662Z,19.23
2019-02-19T21:53:58.487Z,17.23
2019-02-19T21:56:47.599Z,19.10
2019-02-19T21:59:36.029Z,16.13
2019-02-19T22:02:25.278Z,18.40
2019-02-19T22:05:14.469Z,19.13
2019-02-19T22:08:03.651Z,17.10
2019-02-19T22:10:53.899Z,19.87
2019-02-19T22:13:24.818Z,24.17
2019-02-19T22:15:55.604Z,18.87
2019-02-19T22:18:27.351Z,17.17
2019-02-19T22:21:09.690Z,13.73
2019-02-19T22:23:40.506Z,14.13
2019-02-19T22:26:11.213Z,17.23
2019-02-19T22:28:43.920Z,16.13
2019-02-19T22:31:16.890Z,17.57
2019-02-19T22:34:01.287Z,20.90
2019-02-19T22:36:34.055Z,15.87
2019-02-19T22:39:07.880Z,19.63
2019-02-19T22:41:51.103Z,21.03
2019-02-19T22:44:23.825Z,18.27
2019-02-19T22:46:56.434Z,13.87
2019-02-19T22:49:39.492Z,18.67
2019-02-19T22:52:12.777Z,17.53
2019-02-19T22:55:15.803Z,22.37
2019-02-19T22:57:45.759Z,16.57
2019-02-19T23:00:34.900Z,18.27
2019-02-19T23:03:26.313Z,10.90
2019-02-19T23:05:58.918Z,9.37
2019-02-19T23:08:41.616Z,16.17
2019-02-19T23:11:20.810Z,15.47
2019-02-19T23:13:53.672Z,17.00
2019-02-19T23:16:38.912Z,15.30
2019-02-19T23:19:11.710Z,13.97
2019-02-19T23:21:44.412Z,17.50
2019-02-19T23:24:27.312Z,14.40
2019-02-19T23:27:00.178Z,13.00
2019-02-19T23:29:32.919Z,15.03
2019-02-19T23:32:05.616Z,15.90
2019-02-19T23:34:38.278Z,15.20
2019-02-19T23:37:27.584Z,15.07
2019-02-19T23:40:10.832Z,12.80
2019-02-19T23:42:43.529Z,13.90
2019-02-19T23:45:16.206Z,17.43
2019-02-19T23:47:58.625Z,14.33
2019-02-19T23:50:43.957Z,14.87
2019-02-19T23:53:16.741Z,13.60
2019-02-19T23:55:49.499Z,15.23
2019-02-19T23:58:22.346Z,15.57
